createdAt,value
2022-08-07T00:00:26.008Z,3.58
2022-08-07T00:02:53.632Z,2.63
2022-08-07T00:05:20.437Z,2.47
2022-08-07T00:07:47.184Z,2.95
2022-08-07T00:10:27.322Z,2.53
2022-08-07T00:13:00.519Z,3.65
2022-08-07T00:15:37.967Z,3.33
2022-08-07T00:18:19.196Z,3.40
2022-08-07T00:20:47.756Z,3.00
2022-08-07T00:23:14.928Z,3.03
2022-08-07T00:25:45.787Z,2.70
2022-08-07T00:28:19.203Z,3.15
2022-08-07T00:30:49.997Z,3.60
2022-08-07T00:33:16.581Z,3.10
2022-08-07T00:35:46.573Z,5.15
2022-08-07T00:38:15.955Z,3.42
2022-08-07T00:40:58.135Z,3.80
2022-08-07T00:44:00.229Z,4.05
2022-08-07T00:46:12.477Z,3.80
2022-08-07T00:48:42.383Z,4.60
2022-08-07T00:51:09.579Z,7.00
2022-08-07T00:53:38.653Z,3.90
2022-08-07T00:56:13.845Z,4.60
2022-08-07T00:58:42.588Z,6.70
2022-08-07T01:01:14.759Z,4.22
2022-08-07T01:03:56.439Z,5.22
2022-08-07T01:06:26.878Z,3.00
2022-08-07T01:08:55.767Z,3.88
2022-08-07T01:12:09.179Z,4.80
2022-08-07T01:14:09.801Z,3.55
2022-08-07T01:16:38.222Z,4.32
2022-08-07T01:19:18.087Z,4.97
2022-08-07T01:21:48.326Z,6.22
2022-08-07T01:24:21.152Z,5.70
2022-08-07T01:26:52.290Z,4.32
2022-08-07T01:29:19.708Z,4.43
2022-08-07T01:31:48.587Z,4.88
2022-08-07T01:34:15.304Z,6.68
2022-08-07T01:36:41.951Z,3.95
2022-08-07T01:39:12.365Z,4.20
2022-08-07T01:41:40.755Z,4.53
2022-08-07T01:44:21.883Z,4.28
2022-08-07T01:46:50.111Z,4.53
2022-08-07T01:49:16.794Z,4.75
2022-08-07T01:52:01.694Z,4.78
2022-08-07T01:54:36.894Z,6.75
2022-08-07T01:57:05.757Z,6.45
2022-08-07T01:59:37.884Z,5.28
2022-08-07T02:04:39.933Z,6.80
2022-08-07T02:07:23.518Z,5.95
2022-08-07T02:10:14.346Z,5.70
2022-08-07T02:12:42.482Z,5.88
2022-08-07T02:15:14.111Z,6.72
2022-08-07T02:17:41.841Z,6.60
2022-08-07T02:20:17.116Z,8.27
2022-08-07T02:22:44.662Z,5.45
2022-08-07T02:25:18.218Z,6.65
2022-08-07T02:27:52.341Z,5.57
2022-08-07T02:30:19.853Z,7.80
2022-08-07T02:33:07.273Z,6.18
2022-08-07T02:36:30.917Z,5.93
2022-08-07T02:38:28.232Z,9.30
2022-08-07T02:41:00.631Z,7.70
2022-08-07T02:43:27.985Z,9.48
2022-08-07T02:45:58.548Z,6.38
2022-08-07T02:48:28.061Z,7.65
2022-08-07T02:50:55.227Z,6.50
2022-08-07T02:53:27.421Z,6.40
2022-08-07T02:56:04.287Z,7.72
2022-08-07T02:58:34.284Z,6.30
2022-08-07T03:01:02.111Z,6.60
2022-08-07T03:03:50.231Z,6.07
2022-08-07T03:06:29.640Z,8.85
2022-08-07T03:09:00.681Z,8.98
2022-08-07T03:11:28.258Z,8.05
2022-08-07T03:13:57.641Z,8.50
2022-08-07T03:16:28.682Z,9.70
2022-08-07T03:18:57.256Z,7.50
2022-08-07T03:21:24.505Z,8.13
2022-08-07T03:24:20.055Z,7.60
2022-08-07T03:26:50.942Z,9.40
2022-08-07T03:29:27.749Z,7.78
2022-08-07T03:31:55.317Z,8.30
2022-08-07T03:34:22.937Z,8.18
2022-08-07T03:36:54.356Z,8.70
2022-08-07T03:39:59.349Z,7.18
2022-08-07T03:42:09.005Z,10.18
2022-08-07T03:44:37.651Z,11.68
2022-08-07T03:47:13.466Z,7.00
2022-08-07T03:49:41.567Z,10.77
2022-08-07T03:52:22.322Z,8.75
2022-08-07T03:54:54.245Z,6.63
2022-08-07T03:58:33.042Z,7.15
2022-08-07T04:00:11.697Z,9.82
2022-08-07T04:02:41.108Z,9.63
2022-08-07T04:05:08.697Z,8.30
2022-08-07T04:07:36.096Z,8.15
2022-08-07T04:10:15.337Z,10.88
2022-08-07T04:12:42.388Z,10.05
2022-08-07T04:15:11.968Z,13.23
2022-08-07T04:18:56.445Z,11.98
2022-08-07T04:20:25.447Z,9.73
2022-08-07T04:23:01.344Z,14.25
2022-08-07T04:25:29.133Z,14.02
2022-08-07T04:28:00.242Z,11.68
2022-08-07T04:30:39.442Z,9.38
2022-08-07T04:33:15.958Z,8.77
2022-08-07T04:35:44.297Z,11.77
2022-08-07T04:38:17.558Z,8.95
2022-08-07T04:40:51.595Z,8.77
2022-08-07T04:43:21.029Z,9.20
2022-08-07T04:46:01.033Z,9.65
2022-08-07T04:48:34.913Z,12.50
2022-08-07T04:51:05.680Z,9.95
2022-08-07T04:54:05.501Z,10.35
2022-08-07T04:58:23.767Z,8.98
2022-08-07T05:00:10.823Z,12.00
2022-08-07T05:02:08.949Z,12.00
2022-08-07T05:04:59.287Z,8.23
2022-08-07T05:07:37.039Z,14.98
2022-08-07T05:10:12.342Z,9.15
2022-08-07T05:12:51.382Z,8.65
2022-08-07T05:15:24.345Z,8.45
2022-08-07T05:17:55.534Z,10.77
2022-08-07T05:20:25.586Z,10.65
2022-08-07T05:22:54.710Z,10.40
2022-08-07T05:25:25.697Z,9.82
2022-08-07T05:28:20.075Z,12.73
2022-08-07T05:30:49.664Z,11.00
2022-08-07T05:33:20.808Z,12.00
2022-08-07T05:35:48.863Z,11.43
2022-08-07T05:38:59.849Z,10.73
2022-08-07T05:41:12.018Z,8.90
2022-08-07T05:44:01.347Z,10.20
2022-08-07T05:46:29.559Z,11.20
2022-08-07T05:48:59.546Z,10.35
2022-08-07T05:51:26.389Z,9.48
2022-08-07T05:54:12.100Z,10.48
2022-08-07T05:56:41.586Z,7.85
2022-08-07T05:59:10.111Z,10.18
2022-08-07T06:01:40.809Z,10.27
2022-08-07T06:04:09.064Z,9.27
2022-08-07T06:06:36.125Z,10.98
2022-08-07T06:09:04.586Z,9.95
2022-08-07T06:11:32.544Z,7.72
2022-08-07T06:14:11.499Z,9.13
2022-08-07T06:16:43.532Z,12.40
2022-08-07T06:19:17.656Z,8.30
2022-08-07T06:22:14.716Z,9.80
2022-08-07T06:24:45.742Z,8.55
2022-08-07T06:27:31.542Z,10.02
2022-08-07T06:30:09.006Z,11.82
2022-08-07T06:32:55.485Z,7.75
2022-08-07T06:35:23.363Z,9.07
2022-08-07T06:37:58.264Z,9.20
2022-08-07T06:40:34.261Z,7.53
2022-08-07T06:43:02.804Z,6.50
2022-08-07T06:45:35.670Z,7.95
2022-08-07T06:48:02.668Z,5.97
2022-08-07T06:50:33.288Z,5.72
2022-08-07T06:53:04.127Z,7.55
2022-08-07T06:56:00.472Z,5.22
2022-08-07T06:58:21.623Z,6.45
2022-08-07T07:00:52.918Z,4.90
2022-08-07T07:03:26.502Z,4.20
2022-08-07T07:06:11.270Z,6.47
2022-08-07T07:08:39.862Z,3.25
2022-08-07T07:14:02.307Z,2.75
2022-08-07T07:16:30.931Z,2.00
2022-08-07T07:19:00.000Z,2.35
2022-08-07T07:22:05.475Z,4.10
2022-08-07T07:24:27.957Z,3.25
2022-08-07T07:26:56.733Z,3.83
2022-08-07T07:29:56.781Z,4.18
2022-08-07T07:32:14.075Z,2.60
2022-08-07T07:34:42.370Z,3.22
2022-08-07T07:37:22.152Z,2.75
2022-08-07T07:39:59.481Z,3.22
2022-08-07T07:42:32.565Z,3.60
2022-08-07T07:45:01.044Z,3.80
2022-08-07T07:47:28.372Z,2.55
2022-08-07T07:50:35.337Z,1.55
2022-08-07T07:52:46.888Z,5.28
2022-08-07T07:55:14.505Z,4.70
2022-08-07T07:57:51.946Z,3.03
2022-08-07T08:00:29.167Z,4.65
2022-08-07T08:03:04.929Z,2.47
2022-08-07T08:05:50.955Z,3.85
2022-08-07T08:08:35.238Z,4.63
2022-08-07T08:11:03.623Z,5.25
2022-08-07T08:13:36.646Z,5.47
2022-08-07T08:16:20.020Z,2.20
2022-08-07T08:18:54.346Z,2.47
2022-08-07T08:22:00.820Z,3.05
2022-08-07T08:24:47.737Z,3.58
2022-08-07T08:27:26.450Z,4.22
2022-08-07T08:30:03.880Z,5.95
2022-08-07T08:32:38.620Z,3.47
2022-08-07T08:35:08.135Z,4.00
2022-08-07T08:38:00.813Z,2.05
2022-08-07T08:40:30.415Z,1.98
2022-08-07T08:43:01.607Z,2.45
2022-08-07T08:45:41.964Z,1.85
2022-08-07T08:48:22.307Z,2.30
2022-08-07T08:50:56.544Z,2.42
2022-08-07T08:53:30.220Z,2.80
2022-08-07T08:55:59.465Z,2.83
2022-08-07T08:58:33.872Z,3.00
2022-08-07T09:01:01.981Z,5.00
2022-08-07T09:03:52.572Z,2.85
2022-08-07T09:06:26.797Z,2.50
2022-08-07T09:08:57.950Z,2.13
2022-08-07T09:11:43.398Z,2.78
2022-08-07T09:14:19.611Z,1.38
2022-08-07T09:16:53.857Z,3.05
2022-08-07T09:19:52.214Z,2.30
2022-08-07T09:24:28.740Z,2.22
2022-08-07T09:25:14.511Z,3.25
2022-08-07T09:28:00.644Z,1.90
2022-08-07T09:30:32.564Z,1.40
2022-08-07T09:33:05.356Z,2.50
2022-08-07T09:36:03.453Z,4.57
2022-08-07T09:38:29.525Z,2.58
2022-08-07T09:41:03.442Z,1.73
2022-08-07T09:43:40.320Z,2.30
2022-08-07T09:47:52.544Z,2.83
2022-08-07T09:50:01.082Z,1.65
2022-08-07T09:52:33.376Z,2.05
2022-08-07T09:55:04.489Z,2.83
2022-08-07T09:57:46.878Z,3.75
2022-08-07T10:00:16.294Z,1.20
2022-08-07T10:04:03.810Z,2.00
2022-08-07T10:06:17.458Z,1.98
2022-08-07T10:08:51.954Z,1.27
2022-08-07T10:12:01.836Z,1.75
2022-08-07T10:14:30.376Z,1.67
2022-08-07T10:17:16.498Z,2.65
2022-08-07T10:22:33.334Z,3.55
2022-08-07T10:25:12.324Z,2.47
2022-08-07T10:27:51.237Z,1.20
2022-08-07T10:30:18.914Z,1.25
2022-08-07T10:33:08.306Z,2.83
2022-08-07T10:35:55.405Z,1.92
2022-08-07T10:38:48.324Z,2.00
2022-08-07T10:41:46.496Z,2.92
2022-08-07T10:44:11.549Z,1.38
2022-08-07T10:46:40.690Z,1.50
2022-08-07T10:49:14.786Z,2.80
2022-08-07T10:52:01.664Z,2.05
2022-08-07T10:54:41.367Z,1.42
2022-08-07T10:57:34.562Z,1.48
2022-08-07T11:00:08.790Z,2.33
2022-08-07T11:02:38.028Z,1.40
2022-08-07T11:05:13.824Z,2.25
2022-08-07T11:07:59.237Z,2.10
2022-08-07T11:10:31.890Z,3.85
2022-08-07T11:13:02.649Z,2.60
2022-08-07T11:15:32.259Z,2.30
2022-08-07T11:18:03.391Z,2.13
2022-08-07T11:20:41.651Z,3.22
2022-08-07T11:23:20.813Z,2.03
2022-08-07T11:26:06.180Z,3.15
2022-08-07T11:28:35.583Z,2.75
2022-08-07T11:31:08.830Z,1.85
2022-08-07T11:33:53.926Z,1.60
2022-08-07T11:36:39.333Z,1.95
2022-08-07T11:39:21.820Z,2.33
2022-08-07T11:42:01.851Z,2.70
2022-08-07T11:44:36.165Z,2.40
2022-08-07T11:47:07.509Z,1.50
2022-08-07T11:50:31.948Z,1.83
2022-08-07T11:52:49.909Z,1.50
2022-08-07T11:56:11.929Z,2.25
2022-08-07T11:58:16.806Z,1.40
2022-08-07T12:01:02.315Z,1.77
2022-08-07T12:03:46.061Z,2.00
2022-08-07T12:06:37.057Z,2.90
2022-08-07T12:09:09.724Z,1.83
2022-08-07T12:12:08.779Z,2.50
2022-08-07T12:14:37.046Z,2.67
2022-08-07T12:17:08.676Z,2.25
2022-08-07T12:19:56.744Z,3.15
2022-08-07T12:22:47.277Z,1.45
2022-08-07T12:26:06.139Z,2.03
2022-08-07T12:28:40.069Z,1.92
2022-08-07T12:31:17.218Z,1.35
2022-08-07T12:34:00.805Z,2.28
2022-08-07T12:36:32.811Z,1.95
2022-08-07T12:39:01.870Z,2.60
2022-08-07T12:41:49.275Z,1.25
2022-08-07T12:44:18.527Z,1.40
2022-08-07T12:46:53.595Z,1.40
2022-08-07T12:49:39.775Z,1.17
2022-08-07T12:52:14.362Z,3.10
2022-08-07T12:54:54.975Z,1.60
2022-08-07T12:57:38.819Z,1.20
2022-08-07T13:00:16.619Z,1.00
2022-08-07T13:03:08.049Z,2.00
2022-08-07T13:06:03.239Z,1.52
2022-08-07T13:08:38.751Z,3.85
2022-08-07T13:11:23.097Z,1.40
2022-08-07T13:13:57.406Z,3.05
2022-08-07T13:16:28.174Z,1.40
2022-08-07T13:19:00.789Z,3.17
2022-08-07T13:21:37.347Z,1.65
2022-08-07T13:24:19.579Z,1.70
2022-08-07T13:29:21.071Z,2.13
2022-08-07T13:31:57.707Z,2.40
2022-08-07T13:34:35.700Z,1.40
2022-08-07T13:37:10.728Z,3.88
2022-08-07T13:40:34.219Z,1.95
2022-08-07T13:42:39.831Z,1.75
2022-08-07T13:46:07.252Z,1.98
2022-08-07T13:48:05.474Z,2.08
2022-08-07T13:50:44.831Z,1.90
2022-08-07T13:53:23.783Z,2.80
2022-08-07T13:55:54.688Z,2.13
2022-08-07T13:58:42.498Z,1.58
2022-08-07T14:01:24.924Z,1.77
2022-08-07T14:04:08.103Z,1.88
2022-08-07T14:06:35.857Z,1.52
2022-08-07T14:09:04.548Z,2.70
2022-08-07T14:12:00.498Z,1.88
2022-08-07T14:14:24.146Z,1.52
2022-08-07T14:16:57.224Z,1.50
2022-08-07T14:20:43.596Z,1.70
2022-08-07T14:22:34.792Z,2.80
2022-08-07T14:25:06.830Z,2.08
2022-08-07T14:28:11.493Z,3.60
2022-08-07T14:30:32.509Z,2.47
2022-08-07T14:33:04.628Z,1.55
2022-08-07T14:35:42.792Z,4.22
2022-08-07T14:40:59.295Z,1.23
2022-08-07T14:43:55.665Z,1.20
2022-08-07T14:46:20.921Z,1.90
2022-08-07T14:49:00.277Z,1.67
2022-08-07T14:52:05.109Z,2.50
2022-08-07T14:54:41.957Z,1.17
2022-08-07T14:57:10.575Z,1.60
2022-08-07T15:00:05.237Z,1.83
2022-08-07T15:02:34.645Z,1.25
2022-08-07T15:05:03.451Z,1.85
2022-08-07T15:07:47.696Z,1.88
2022-08-07T15:10:19.756Z,2.53
2022-08-07T15:12:54.821Z,1.40
2022-08-07T15:15:26.034Z,1.67
2022-08-07T15:17:55.885Z,1.92
2022-08-07T15:23:20.314Z,2.72
2022-08-07T15:25:50.959Z,1.73
2022-08-07T15:28:34.827Z,1.95
2022-08-07T15:31:07.989Z,1.45
2022-08-07T15:37:02.942Z,1.20
2022-08-07T15:39:12.405Z,1.42
2022-08-07T15:42:42.329Z,2.92
2022-08-07T15:48:00.251Z,1.15
2022-08-07T15:53:13.963Z,1.08
2022-08-07T15:55:53.614Z,2.00
2022-08-07T15:58:34.806Z,1.75
2022-08-07T16:01:02.722Z,1.58
2022-08-07T16:03:47.129Z,1.83
2022-08-07T16:06:15.059Z,2.22
2022-08-07T16:08:46.483Z,3.03
2022-08-07T16:11:26.915Z,1.40
2022-08-07T16:14:03.188Z,1.58
2022-08-07T16:16:48.943Z,1.95
2022-08-07T16:19:42.812Z,1.08
2022-08-07T16:22:37.724Z,1.35
2022-08-07T16:25:23.005Z,2.17
2022-08-07T16:28:10.335Z,1.35
2022-08-07T16:30:56.301Z,3.42
2022-08-07T16:34:01.599Z,1.02
2022-08-07T16:36:19.908Z,3.03
2022-08-07T16:39:00.897Z,1.30
2022-08-07T16:41:41.725Z,3.13
2022-08-07T16:45:04.096Z,5.38
2022-08-07T16:47:58.820Z,1.90
2022-08-07T16:50:37.419Z,3.40
2022-08-07T16:53:57.197Z,2.42
2022-08-07T16:56:06.708Z,2.75
2022-08-07T16:59:10.077Z,1.92
2022-08-07T17:01:35.028Z,1.10
2022-08-07T17:04:12.364Z,2.83
2022-08-07T17:07:02.953Z,1.38
2022-08-07T17:10:06.914Z,3.20
2022-08-07T17:12:36.624Z,1.20
2022-08-07T17:15:07.526Z,4.43
2022-08-07T17:17:46.165Z,2.17
2022-08-07T17:20:21.462Z,3.00
2022-08-07T17:25:16.138Z,2.03
2022-08-07T17:27:51.776Z,4.05
2022-08-07T17:30:26.918Z,4.97
2022-08-07T17:33:03.863Z,1.67
2022-08-07T17:35:57.656Z,1.25
2022-08-07T17:38:34.141Z,3.22
2022-08-07T17:42:00.750Z,1.52
2022-08-07T17:44:03.009Z,3.00
2022-08-07T17:46:40.642Z,2.78
2022-08-07T17:49:10.513Z,3.92
2022-08-07T17:52:00.767Z,2.30
2022-08-07T17:54:29.887Z,1.48
2022-08-07T17:57:18.702Z,3.08
2022-08-07T17:59:50.554Z,6.47
2022-08-07T18:02:23.366Z,2.20
2022-08-07T18:04:54.571Z,3.22
2022-08-07T18:07:34.065Z,3.53
2022-08-07T18:10:05.711Z,3.47
2022-08-07T18:12:48.090Z,2.80
2022-08-07T18:15:19.229Z,3.53
2022-08-07T18:18:46.258Z,5.53
2022-08-07T18:21:07.390Z,2.80
2022-08-07T18:23:43.364Z,4.25
2022-08-07T18:26:15.305Z,2.40
2022-08-07T18:28:57.793Z,4.03
2022-08-07T18:31:40.394Z,3.10
2022-08-07T18:34:37.517Z,9.23
2022-08-07T18:37:09.320Z,4.32
2022-08-07T18:40:06.997Z,2.72
2022-08-07T18:42:37.833Z,2.38
2022-08-07T18:45:43.596Z,4.35
2022-08-07T18:48:01.079Z,5.43
2022-08-07T18:50:45.916Z,3.03
2022-08-07T18:53:16.464Z,4.50
2022-08-07T18:55:55.819Z,3.42
2022-08-07T18:58:29.895Z,3.33
2022-08-07T19:01:05.878Z,3.83
2022-08-07T19:03:37.676Z,6.28
2022-08-07T19:06:09.028Z,2.28
2022-08-07T19:08:46.337Z,5.90
2022-08-07T19:11:35.724Z,2.80
2022-08-07T19:14:11.670Z,4.85
2022-08-07T19:17:08.455Z,3.90
2022-08-07T19:19:37.841Z,5.47
2022-08-07T19:22:11.201Z,5.72
2022-08-07T19:24:43.445Z,5.57
2022-08-07T19:29:03.358Z,5.80
2022-08-07T19:31:05.484Z,3.58
2022-08-07T19:32:51.139Z,4.50
2022-08-07T19:35:22.655Z,9.00
2022-08-07T19:37:57.323Z,5.00
2022-08-07T19:40:31.924Z,6.28
2022-08-07T19:43:01.226Z,4.72
2022-08-07T19:46:05.565Z,4.88
2022-08-07T19:48:24.316Z,4.05
2022-08-07T19:50:53.386Z,5.88
2022-08-07T19:54:32.371Z,6.30
2022-08-07T19:56:58.649Z,3.20
2022-08-07T19:58:57.603Z,6.32
2022-08-07T20:01:52.648Z,7.70
2022-08-07T20:04:12.397Z,6.25
2022-08-07T20:06:58.212Z,6.35
2022-08-07T20:10:35.534Z,4.53
2022-08-07T20:12:31.697Z,6.28
2022-08-07T20:15:03.482Z,4.88
2022-08-07T20:17:31.789Z,5.57
2022-08-07T20:20:04.633Z,3.78
2022-08-07T20:22:34.722Z,10.10
2022-08-07T20:25:06.088Z,10.48
2022-08-07T20:27:47.840Z,5.85
2022-08-07T20:30:22.384Z,11.32
2022-08-07T20:32:50.349Z,5.77
2022-08-07T20:35:26.154Z,8.60
2022-08-07T20:37:57.738Z,7.78
2022-08-07T20:40:32.205Z,7.43
2022-08-07T20:43:02.298Z,6.72
2022-08-07T20:45:33.436Z,7.00
2022-08-07T20:48:28.827Z,6.15
2022-08-07T20:50:57.506Z,9.25
2022-08-07T20:53:25.957Z,8.52
2022-08-07T20:56:13.152Z,6.82
2022-08-07T20:58:47.248Z,8.77
2022-08-07T21:01:19.780Z,7.68
2022-08-07T21:04:13.176Z,6.35
2022-08-07T21:06:35.386Z,5.40
2022-08-07T21:09:13.785Z,7.57
2022-08-07T21:11:50.237Z,6.43
2022-08-07T21:14:33.108Z,7.72
2022-08-07T21:18:00.802Z,10.13
2022-08-07T21:19:51.305Z,9.00
2022-08-07T21:22:28.644Z,7.65
2022-08-07T21:25:11.842Z,7.85
2022-08-07T21:27:47.282Z,8.32
2022-08-07T21:30:15.084Z,9.98
2022-08-07T21:32:49.508Z,6.95
2022-08-07T21:35:34.505Z,9.50
2022-08-07T21:38:10.551Z,10.20
2022-08-07T21:40:41.797Z,8.63
2022-08-07T21:43:11.240Z,10.18
2022-08-07T21:46:10.179Z,9.35
2022-08-07T21:48:42.560Z,11.75
2022-08-07T21:51:20.065Z,9.93
2022-08-07T21:53:53.561Z,7.30
2022-08-07T21:56:35.987Z,8.88
2022-08-07T21:59:07.869Z,9.00
2022-08-07T22:02:07.417Z,8.60
2022-08-07T22:04:26.066Z,12.15
2022-08-07T22:06:54.314Z,10.23
2022-08-07T22:09:25.272Z,7.88
2022-08-07T22:12:05.747Z,8.27
2022-08-07T22:14:38.961Z,10.30
2022-08-07T22:17:26.643Z,8.07
2022-08-07T22:20:22.820Z,10.07
2022-08-07T22:22:52.584Z,9.27
2022-08-07T22:25:27.020Z,8.18
2022-08-07T22:28:20.129Z,9.05
2022-08-07T22:30:53.086Z,10.95
2022-08-07T22:33:53.105Z,11.13
2022-08-07T22:36:12.529Z,10.65
2022-08-07T22:38:48.187Z,8.38
2022-08-07T22:41:16.372Z,10.20
2022-08-07T22:43:48.809Z,9.10
2022-08-07T22:47:02.875Z,14.32
2022-08-07T22:49:37.695Z,15.00
2022-08-07T22:52:12.092Z,10.77
2022-08-07T22:54:59.275Z,10.45
2022-08-07T22:57:59.205Z,9.98
2022-08-07T23:00:30.539Z,11.88
2022-08-07T23:03:01.389Z,9.93
2022-08-07T23:06:09.688Z,9.73
2022-08-07T23:08:38.142Z,12.52
2022-08-07T23:11:20.384Z,12.70
2022-08-07T23:14:10.432Z,9.82
2022-08-07T23:16:54.875Z,12.77
2022-08-07T23:19:51.632Z,11.35
2022-08-07T23:22:26.345Z,9.88
2022-08-07T23:25:02.102Z,11.23
2022-08-07T23:28:22.558Z,10.63
2022-08-07T23:30:37.428Z,11.85
2022-08-07T23:34:36.661Z,10.90
2022-08-07T23:36:04.221Z,13.82
2022-08-07T23:38:54.564Z,11.23
2022-08-07T23:41:33.547Z,15.32
2022-08-07T23:44:16.794Z,14.88
2022-08-07T23:46:56.442Z,15.18
2022-08-07T23:49:50.223Z,14.75
2022-08-07T23:52:58.928Z,12.40
2022-08-07T23:55:46.983Z,14.18
2022-08-07T23:58:06.966Z,11.25
